createdAt,value
2023-03-14T05:47:36.152Z,9.10
2023-03-14T05:50:04.202Z,9.00
2023-03-14T05:52:32.106Z,9.10
2023-03-14T05:55:00.044Z,9.10
2023-03-14T05:57:27.998Z,9.20
2023-03-14T05:59:55.875Z,9.20
2023-03-14T06:02:23.859Z,9.20
2023-03-14T06:04:53.176Z,9.20
2023-03-14T06:07:21.142Z,9.20
2023-03-14T06:09:49.075Z,9.10
2023-03-14T06:12:18.201Z,9.10
2023-03-14T06:14:46.127Z,9.10
2023-03-14T06:17:14.113Z,9.10
2023-03-14T06:19:42.073Z,9.10
2023-03-14T06:22:11.325Z,9.10
2023-03-14T06:24:39.283Z,9.10
2023-03-14T06:27:07.278Z,9.10
2023-03-14T06:29:35.569Z,9.10
2023-03-14T06:32:03.595Z,9.10
2023-03-14T06:34:31.518Z,9.20
2023-03-14T06:36:59.458Z,9.30
2023-03-14T06:39:28.696Z,9.40
2023-03-14T06:41:56.579Z,9.30
2023-03-14T06:44:24.426Z,9.30
2023-03-14T06:46:52.311Z,9.40
2023-03-14T06:49:20.258Z,9.40
2023-03-14T06:51:48.196Z,9.40
2023-03-14T06:54:16.229Z,9.40
2023-03-14T06:56:45.519Z,9.40
2023-03-14T06:59:13.487Z,9.40
2023-03-14T07:01:41.531Z,9.50
2023-03-14T07:04:10.516Z,9.50
2023-03-14T07:06:40.544Z,9.60
2023-03-14T07:09:08.546Z,9.80
2023-03-14T07:11:36.533Z,9.90
2023-03-14T07:14:06.052Z,9.90
2023-03-14T07:16:34.056Z,10.00
2023-03-14T07:19:02.441Z,10.00
2023-03-14T07:21:30.427Z,10.00
2023-03-14T07:23:58.324Z,10.10
2023-03-14T07:26:26.335Z,10.20
2023-03-14T07:28:54.498Z,10.20
2023-03-14T07:31:23.831Z,10.30
2023-03-14T07:33:51.987Z,10.20
2023-03-14T07:36:19.975Z,10.20
2023-03-14T07:38:47.930Z,11.00
2023-03-14T07:41:16.204Z,12.80
2023-03-14T07:43:44.408Z,14.20
2023-03-14T15:02:41.092Z,8.30
2023-03-14T15:05:14.740Z,8.30
2023-03-14T15:07:42.688Z,8.20
2023-03-14T15:10:13.360Z,8.20
2023-03-14T15:12:41.350Z,8.20
2023-03-14T15:15:10.507Z,8.20
2023-03-14T15:17:40.399Z,8.30
2023-03-14T15:20:14.246Z,8.30
2023-03-14T15:22:42.530Z,8.20
2023-03-14T15:25:31.487Z,8.30
2023-03-14T15:27:59.712Z,8.40
2023-03-14T15:30:27.707Z,8.20
2023-03-14T15:32:57.149Z,8.20
2023-03-14T15:35:25.182Z,8.30
2023-03-14T15:37:53.073Z,8.50
2023-03-14T15:40:21.635Z,8.60
2023-03-14T15:42:49.541Z,8.60
2023-03-14T15:45:17.510Z,8.60
2023-03-14T15:47:45.468Z,8.50
2023-03-14T15:50:14.909Z,8.50
2023-03-14T15:52:42.878Z,8.40
2023-03-14T15:55:12.117Z,8.40
2023-03-14T15:57:40.035Z,8.30
2023-03-14T16:00:12.218Z,8.30
2023-03-14T16:02:42.323Z,8.10
2023-03-14T16:05:11.739Z,8.10
2023-03-14T16:07:41.592Z,8.00
2023-03-14T16:10:12.472Z,7.90
2023-03-14T16:12:40.944Z,7.80
2023-03-14T16:15:10.700Z,7.80
2023-03-14T16:17:41.053Z,7.70
2023-03-14T16:20:10.495Z,7.70
2023-03-14T16:22:39.928Z,7.60
2023-03-14T16:25:09.780Z,7.60
2023-03-14T16:27:38.923Z,7.60
2023-03-14T16:30:08.840Z,7.70
2023-03-14T16:32:37.755Z,7.70
2023-03-14T16:35:06.717Z,7.60
2023-03-14T16:37:34.614Z,7.50
2023-03-14T16:40:13.319Z,7.50
2023-03-14T16:43:05.225Z,7.40
2023-03-14T16:45:30.298Z,7.30
2023-03-14T16:47:58.313Z,7.20
2023-03-14T16:50:26.254Z,7.20
2023-03-14T16:52:55.306Z,7.10
2023-03-14T16:55:24.715Z,7.00
2023-03-14T16:57:52.629Z,7.10
2023-03-14T17:00:22.331Z,7.10
2023-03-14T17:02:50.339Z,7.00
2023-03-14T17:05:19.037Z,7.00
2023-03-14T17:07:47.814Z,7.00
2023-03-14T17:10:15.817Z,7.00
2023-03-14T17:12:45.712Z,7.00
2023-03-14T17:15:14.148Z,7.00
2023-03-14T17:17:42.101Z,6.90
2023-03-14T17:20:11.732Z,6.90
2023-03-14T17:22:39.675Z,6.90
2023-03-14T17:25:08.577Z,6.90
2023-03-14T17:27:36.489Z,6.80
2023-03-14T17:30:06.673Z,6.70
2023-03-14T17:32:34.694Z,6.70
2023-03-14T17:35:02.644Z,6.70
2023-03-14T17:37:30.510Z,6.60
2023-03-14T17:40:01.467Z,6.50
2023-03-14T17:42:31.249Z,6.30
2023-03-14T17:44:59.762Z,6.00
2023-03-14T17:47:29.369Z,5.70
2023-03-14T17:49:57.280Z,5.60
2023-03-14T17:52:28.679Z,5.40
2023-03-14T17:54:56.591Z,5.30
2023-03-14T17:57:24.606Z,5.10
2023-03-14T17:59:53.680Z,5.10
2023-03-14T18:02:22.073Z,5.00
2023-03-14T18:04:52.288Z,4.90
2023-03-14T18:07:21.664Z,4.80
2023-03-14T18:09:49.679Z,4.70
2023-03-14T18:12:17.654Z,4.70
2023-03-14T18:14:45.831Z,4.70
2023-03-14T18:17:14.215Z,4.70
2023-03-14T18:19:42.588Z,4.60
2023-03-14T18:22:11.923Z,4.60
2023-03-14T18:24:39.789Z,4.60
2023-03-14T18:27:07.761Z,4.60
2023-03-14T18:29:36.960Z,4.70
2023-03-14T18:32:04.879Z,4.70
2023-03-14T18:34:33.390Z,4.70
2023-03-14T18:37:01.956Z,4.80
2023-03-14T18:39:31.346Z,4.80
2023-03-14T18:41:59.350Z,4.80
2023-03-14T18:44:27.283Z,4.60
2023-03-14T18:46:55.293Z,4.60
2023-03-14T18:49:23.267Z,4.50
2023-03-14T18:51:51.916Z,4.40
2023-03-14T18:54:19.832Z,4.30
2023-03-14T18:56:49.191Z,4.30
2023-03-14T18:59:17.349Z,4.30
2023-03-14T19:01:45.413Z,4.20
2023-03-14T19:04:13.351Z,4.10
2023-03-14T19:06:41.624Z,4.10
2023-03-14T19:09:13.975Z,4.00
2023-03-14T19:11:43.438Z,4.00
2023-03-14T19:14:15.949Z,3.90
2023-03-14T19:16:44.409Z,3.90
2023-03-14T19:19:12.498Z,3.90
2023-03-14T19:21:40.485Z,3.90
2023-03-14T19:24:08.816Z,3.90
2023-03-14T19:26:38.110Z,3.90
2023-03-14T19:29:06.791Z,3.90
2023-03-14T19:31:36.176Z,3.90
2023-03-14T19:34:04.266Z,3.90
2023-03-14T19:36:33.943Z,3.90
2023-03-14T19:39:03.554Z,3.90
2023-03-14T19:41:32.282Z,3.80
2023-03-14T19:44:01.139Z,3.80
2023-03-14T19:46:30.721Z,3.80
2023-03-14T19:49:00.640Z,3.80
2023-03-14T19:51:31.076Z,3.80
2023-03-14T19:54:03.342Z,3.80
2023-03-14T19:56:31.558Z,3.90
2023-03-14T19:58:59.930Z,3.90
2023-03-14T20:01:28.140Z,4.00
2023-03-14T20:03:56.109Z,4.00
2023-03-14T20:06:25.559Z,4.10
2023-03-14T20:08:53.505Z,4.20
2023-03-14T20:11:21.460Z,4.30
2023-03-14T20:13:49.660Z,4.30
2023-03-14T20:16:17.820Z,4.30
2023-03-14T20:18:46.282Z,4.30
2023-03-14T20:21:15.124Z,4.30
2023-03-14T20:23:44.511Z,4.20
2023-03-14T20:26:12.553Z,4.20
2023-03-14T20:28:42.612Z,4.20
2023-03-14T20:31:10.792Z,4.10
2023-03-14T20:33:38.810Z,4.00
2023-03-14T20:36:07.800Z,4.00
2023-03-14T20:38:36.689Z,4.00
2023-03-14T20:41:07.633Z,4.00
2023-03-14T20:43:35.880Z,4.10
2023-03-14T20:46:03.953Z,4.10
2023-03-14T20:48:33.326Z,4.10
2023-03-14T20:51:01.621Z,4.20
2023-03-14T20:53:30.048Z,4.30
2023-03-14T20:55:58.856Z,4.30
2023-03-14T20:58:28.215Z,4.40
